createdAt,value
2023-01-20T00:00:52.780Z,1.44
2023-01-20T00:03:39.775Z,1.50
2023-01-20T00:06:27.246Z,1.49
2023-01-20T00:09:16.883Z,1.40
2023-01-20T00:12:03.949Z,1.50
2023-01-20T00:14:50.727Z,1.44
2023-01-20T00:17:37.755Z,1.40
2023-01-20T00:20:25.054Z,1.37
2023-01-20T00:23:11.960Z,1.49
2023-01-20T00:25:58.760Z,1.42
2023-01-20T00:28:45.760Z,1.47
2023-01-20T00:31:34.657Z,1.46
2023-01-20T00:34:22.721Z,1.35
2023-01-20T00:37:09.515Z,1.45
2023-01-20T00:39:56.400Z,1.45
2023-01-20T00:42:43.262Z,1.44
2023-01-20T00:45:30.551Z,1.38
2023-01-20T00:48:17.475Z,1.43
2023-01-20T00:51:04.576Z,1.36
2023-01-20T00:53:51.528Z,1.42
2023-01-20T00:56:38.508Z,1.41
2023-01-20T00:59:25.301Z,1.42
2023-01-20T01:02:12.140Z,1.31
2023-01-20T01:04:59.112Z,1.39
2023-01-20T01:07:46.221Z,1.38
2023-01-20T01:10:33.095Z,1.39
2023-01-20T01:13:21.563Z,1.38
2023-01-20T01:16:09.752Z,1.25
2023-01-20T01:18:56.764Z,1.20
2023-01-20T01:21:43.634Z,1.06
2023-01-20T01:24:30.610Z,1.37
2023-01-20T01:27:17.442Z,1.30
2023-01-20T01:30:04.473Z,1.35
2023-01-20T01:32:53.047Z,1.34
2023-01-20T01:35:40.020Z,1.15
2023-01-20T01:38:26.814Z,1.25
2023-01-20T01:41:15.261Z,1.34
2023-01-20T01:44:21.552Z,1.29
2023-01-20T01:47:08.553Z,1.31
2023-01-20T01:49:55.440Z,1.30
2023-01-20T01:52:42.654Z,1.28
2023-01-20T01:55:30.467Z,1.22
2023-01-20T01:58:19.741Z,1.19
2023-01-20T02:01:07.227Z,1.13
2023-01-20T02:04:10.213Z,1.24
2023-01-20T02:07:00.821Z,1.23
2023-01-20T02:09:49.709Z,1.21
2023-01-20T02:12:39.876Z,0.92
2023-01-20T02:15:27.444Z,1.20
2023-01-20T02:18:51.673Z,1.17
2023-01-20T02:21:53.656Z,1.18
2023-01-20T02:25:18.288Z,1.16
2023-01-20T02:28:26.385Z,1.15
2023-01-20T02:31:25.420Z,1.14
2023-01-20T02:34:24.124Z,1.14
2023-01-20T02:37:13.493Z,1.13
2023-01-20T02:40:10.034Z,1.12
2023-01-20T02:43:01.396Z,1.12
2023-01-20T02:46:00.183Z,1.08
2023-01-20T02:49:04.192Z,1.08
2023-01-20T02:52:01.102Z,0.63
2023-01-20T02:54:52.964Z,1.07
2023-01-20T02:57:46.375Z,1.05
2023-01-20T03:00:40.409Z,1.04
2023-01-20T03:03:32.362Z,1.03
2023-01-20T03:06:22.109Z,1.01
2023-01-20T03:09:12.539Z,1.00
2023-01-20T03:12:05.809Z,0.65
2023-01-20T03:14:52.769Z,0.91
2023-01-20T03:17:40.573Z,0.93
2023-01-20T03:20:28.513Z,0.76
2023-01-20T03:23:15.534Z,0.90
2023-01-20T03:26:05.801Z,0.89
2023-01-20T03:28:52.660Z,0.84
2023-01-20T03:31:45.007Z,0.84
2023-01-20T03:34:35.760Z,0.51
2023-01-20T03:37:24.405Z,0.59
2023-01-20T03:40:11.953Z,0.76
2023-01-20T03:43:01.690Z,0.76
2023-01-20T03:46:10.121Z,0.73
2023-01-20T03:49:11.432Z,0.71
2023-01-20T03:52:47.029Z,0.67
2023-01-20T03:55:41.235Z,0.19
2023-01-20T03:58:32.719Z,0.62
2023-01-20T04:01:23.838Z,0.34
2023-01-20T04:04:13.580Z,0.55
2023-01-20T04:07:02.864Z,0.43
2023-01-20T04:09:54.465Z,0.42
2023-01-20T04:12:41.571Z,0.52
2023-01-20T04:15:30.558Z,0.52
2023-01-20T04:18:17.806Z,0.51
2023-01-20T04:21:07.997Z,0.49
2023-01-20T04:24:12.944Z,0.35
2023-01-20T04:27:00.167Z,0.45
2023-01-20T04:29:47.250Z,0.38
2023-01-20T04:32:34.487Z,0.37
2023-01-20T04:35:21.409Z,0.43
2023-01-20T04:38:08.442Z,0.43
2023-01-20T04:40:55.610Z,0.43
2023-01-20T04:43:42.648Z,0.41
2023-01-20T04:46:32.174Z,0.41
2023-01-20T04:49:19.350Z,0.39
2023-01-20T04:52:06.513Z,0.42
2023-01-20T04:54:53.884Z,0.41
2023-01-20T04:57:41.011Z,0.18
2023-01-20T05:00:28.827Z,0.36
2023-01-20T05:03:18.640Z,0.41
2023-01-20T05:06:13.083Z,0.40
2023-01-20T05:09:00.353Z,0.39
2023-01-20T05:11:47.554Z,0.34
2023-01-20T05:14:34.507Z,0.32
2023-01-20T05:17:21.564Z,0.37
2023-01-20T05:20:11.231Z,0.27
2023-01-20T05:23:01.112Z,0.09
2023-01-20T05:25:48.393Z,0.35
2023-01-20T05:28:35.542Z,0.34
2023-01-20T05:31:22.516Z,0.36
2023-01-20T05:34:09.638Z,0.37
2023-01-20T05:36:56.641Z,0.26
2023-01-20T05:39:43.739Z,0.33
2023-01-20T05:42:30.798Z,0.38
2023-01-20T05:45:17.845Z,0.37
2023-01-20T05:48:20.750Z,0.36
2023-01-20T05:51:08.372Z,0.35
2023-01-20T05:53:55.221Z,0.26
2023-01-20T05:56:42.249Z,0.27
2023-01-20T05:59:29.184Z,0.28
2023-01-20T06:02:16.411Z,0.20
2023-01-20T06:05:03.287Z,-0.23
2023-01-20T06:07:51.067Z,0.05
2023-01-20T06:10:38.193Z,0.21
2023-01-20T06:13:25.117Z,-0.28
2023-01-20T06:16:15.587Z,0.18
2023-01-20T06:18:44.742Z,0.16
2023-01-20T06:21:32.209Z,0.15
2023-01-20T06:24:19.193Z,0.15
2023-01-20T06:27:06.114Z,-0.07
2023-01-20T06:29:52.964Z,0.14
2023-01-20T06:32:39.792Z,0.09
2023-01-20T06:35:26.917Z,0.10
2023-01-20T06:38:17.933Z,0.08
2023-01-20T06:41:04.993Z,0.06
2023-01-20T06:43:53.483Z,-0.31
2023-01-20T06:46:40.633Z,-0.26
2023-01-20T06:49:27.549Z,-0.02
2023-01-20T06:52:14.574Z,-0.03
2023-01-20T06:55:01.389Z,-0.08
2023-01-20T06:57:28.624Z,-0.05
2023-01-20T07:00:15.464Z,-0.16
2023-01-20T07:03:02.509Z,-0.17
2023-01-20T07:05:49.416Z,-0.48
2023-01-20T07:08:36.411Z,-0.10
2023-01-20T07:11:23.261Z,-0.12
2023-01-20T07:14:10.255Z,-0.44
2023-01-20T07:16:57.091Z,-0.13
2023-01-20T07:19:43.935Z,-0.07
2023-01-20T07:22:30.727Z,-0.03
2023-01-20T07:25:17.842Z,-0.02
2023-01-20T07:28:04.821Z,0.02
2023-01-20T07:30:51.787Z,0.02
2023-01-20T07:33:38.679Z,-0.12
2023-01-20T07:36:28.803Z,0.02
2023-01-20T07:39:15.752Z,-0.04
2023-01-20T07:42:02.970Z,-0.02
2023-01-20T07:44:49.869Z,-0.01
2023-01-20T07:47:36.789Z,-0.04
2023-01-20T07:50:23.935Z,-0.08
2023-01-20T07:53:10.931Z,-0.03
2023-01-20T07:55:57.726Z,-0.04
2023-01-20T07:58:44.720Z,-0.05
2023-01-20T08:01:52.181Z,-0.06
2023-01-20T08:04:39.158Z,-0.09
2023-01-20T08:07:26.069Z,-0.12
2023-01-20T08:10:13.087Z,-0.13
2023-01-20T08:12:59.973Z,-0.14
2023-01-20T08:15:47.580Z,-0.14
2023-01-20T08:18:34.540Z,-0.21
2023-01-20T08:21:23.388Z,-0.20
2023-01-20T08:24:10.695Z,-0.27
2023-01-20T08:26:58.327Z,-0.21
2023-01-20T08:29:45.977Z,-0.22
2023-01-20T08:32:33.007Z,-0.25
2023-01-20T08:35:19.978Z,-0.26
2023-01-20T08:38:07.023Z,-0.32
2023-01-20T08:40:53.840Z,-0.35
2023-01-20T08:43:40.874Z,-0.35
2023-01-20T08:46:31.047Z,-0.38
2023-01-20T08:49:18.131Z,-0.42
2023-01-20T08:52:05.324Z,-0.46
2023-01-20T08:54:52.258Z,-0.52
2023-01-20T08:57:39.133Z,-0.49
2023-01-20T09:00:28.811Z,-0.55
2023-01-20T09:03:15.701Z,-0.60
2023-01-20T09:06:02.850Z,-0.76
2023-01-20T09:08:49.946Z,-0.69
2023-01-20T09:11:41.137Z,-0.73
2023-01-20T09:14:28.138Z,-0.78
2023-01-20T09:16:55.133Z,-0.78
2023-01-20T09:19:22.200Z,-0.81
2023-01-20T09:21:49.122Z,-0.81
2023-01-20T09:24:16.179Z,-0.80
2023-01-20T09:26:43.217Z,-0.84
2023-01-20T09:29:12.487Z,-0.81
2023-01-20T09:31:45.697Z,-0.82
2023-01-20T09:34:21.434Z,-0.83
2023-01-20T09:37:19.553Z,-1.23
2023-01-20T09:40:07.746Z,-0.84
2023-01-20T09:43:16.365Z,-0.86
2023-01-20T09:46:40.767Z,-0.87
2023-01-20T09:49:39.102Z,-0.86
2023-01-20T09:52:39.588Z,-0.86
2023-01-20T09:55:24.841Z,-1.10
2023-01-20T09:58:02.379Z,-0.85
2023-01-20T10:00:33.319Z,-0.85
2023-01-20T10:03:16.250Z,-1.04
2023-01-20T10:05:44.972Z,-0.84
2023-01-20T10:08:29.061Z,-0.84
2023-01-20T10:11:10.894Z,-0.86
2023-01-20T10:13:47.367Z,-0.87
2023-01-20T10:16:40.330Z,-0.87
2023-01-20T10:19:35.411Z,-0.88
2023-01-20T10:22:26.992Z,-0.89
2023-01-20T10:25:14.204Z,-0.90
2023-01-20T10:27:51.481Z,-0.90
2023-01-20T10:30:21.754Z,-0.92
2023-01-20T10:32:58.730Z,-0.91
2023-01-20T10:35:29.542Z,-0.92
2023-01-20T10:37:58.469Z,-1.23
2023-01-20T10:40:42.238Z,-0.92
2023-01-20T10:43:15.789Z,-0.94
2023-01-20T10:46:13.004Z,-0.92
2023-01-20T10:48:45.770Z,-0.92
2023-01-20T10:51:32.542Z,-1.14
2023-01-20T10:54:11.508Z,-0.93
2023-01-20T10:56:44.365Z,-1.18
2023-01-20T10:59:48.286Z,-1.00
2023-01-20T11:02:52.105Z,-0.98
2023-01-20T11:05:49.653Z,-1.21
2023-01-20T11:08:47.325Z,-1.01
2023-01-20T11:11:47.080Z,-1.03
2023-01-20T11:14:34.341Z,-1.04
2023-01-20T11:17:25.234Z,-1.05
2023-01-20T11:20:13.735Z,-1.04
2023-01-20T11:23:06.881Z,-1.06
2023-01-20T11:25:54.063Z,-1.06
2023-01-20T11:28:41.133Z,-1.06
2023-01-20T11:31:28.311Z,-1.06
2023-01-20T11:34:21.744Z,-1.05
2023-01-20T11:37:24.648Z,-1.04
2023-01-20T11:40:11.536Z,-1.03
2023-01-20T11:43:04.961Z,-1.05
2023-01-20T11:45:56.220Z,-1.02
2023-01-20T11:48:43.304Z,-1.04
2023-01-20T11:51:46.548Z,-1.02
2023-01-20T11:54:39.896Z,-1.06
2023-01-20T11:57:27.289Z,-0.96
2023-01-20T12:00:14.549Z,-0.94
2023-01-20T12:03:01.639Z,-0.92
2023-01-20T12:06:14.857Z,-1.29
2023-01-20T12:09:01.601Z,-0.90
2023-01-20T12:11:57.168Z,-1.28
2023-01-20T12:15:05.013Z,-0.87
2023-01-20T12:18:09.455Z,-0.85
2023-01-20T12:21:15.828Z,-0.84
2023-01-20T12:24:19.597Z,-0.85
2023-01-20T12:27:06.754Z,-0.84
2023-01-20T12:30:03.056Z,-0.80
2023-01-20T12:32:50.042Z,-0.81
2023-01-20T12:35:36.942Z,-0.80
2023-01-20T12:38:28.165Z,-0.76
2023-01-20T12:41:19.960Z,-1.20
2023-01-20T12:44:36.079Z,-0.79
2023-01-20T12:48:00.756Z,-0.72
2023-01-20T12:51:25.117Z,-0.71
2023-01-20T12:54:17.718Z,-0.68
2023-01-20T12:57:29.198Z,-0.68
2023-01-20T13:00:41.032Z,-0.67
2023-01-20T13:03:49.610Z,-0.67
2023-01-20T13:06:57.401Z,-0.66
2023-01-20T13:10:26.561Z,-1.12
2023-01-20T13:13:32.095Z,-0.66
2023-01-20T13:16:35.291Z,-0.67
2023-01-20T13:19:48.931Z,-0.61
2023-01-20T13:22:38.014Z,-0.58
2023-01-20T13:25:25.313Z,-0.58
2023-01-20T13:28:12.785Z,-0.57
2023-01-20T13:31:05.174Z,-0.57
2023-01-20T13:33:59.772Z,-0.58
2023-01-20T13:36:46.919Z,-0.58
2023-01-20T13:40:02.274Z,-0.59
2023-01-20T13:42:58.102Z,-0.61
2023-01-20T13:45:46.414Z,-0.61
2023-01-20T13:48:33.662Z,-0.63
2023-01-20T13:51:35.989Z,-0.64
2023-01-20T13:54:50.752Z,-0.66
2023-01-20T13:57:40.818Z,-0.67
2023-01-20T14:00:33.152Z,-0.79
2023-01-20T14:03:37.283Z,-0.70
2023-01-20T14:06:27.086Z,-0.71
2023-01-20T14:09:14.050Z,-0.72
2023-01-20T14:12:10.280Z,-0.73
2023-01-20T14:15:01.797Z,-1.14
2023-01-20T14:17:48.842Z,-0.77
2023-01-20T14:20:46.382Z,-0.92
2023-01-20T14:23:49.549Z,-0.91
2023-01-20T14:26:50.763Z,-1.17
2023-01-20T14:29:38.319Z,-0.86
2023-01-20T14:32:56.724Z,-0.86
2023-01-20T14:35:52.258Z,-0.90
2023-01-20T14:38:19.204Z,-0.88
2023-01-20T14:40:49.664Z,-0.89
2023-01-20T14:43:22.537Z,-0.96
2023-01-20T14:45:54.436Z,-0.92
2023-01-20T14:48:33.693Z,-0.94
2023-01-20T14:51:04.229Z,-1.02
2023-01-20T14:53:31.489Z,-0.97
2023-01-20T14:56:03.589Z,-1.03
2023-01-20T14:58:31.657Z,-1.00
2023-01-20T15:01:24.306Z,-1.04
2023-01-20T15:04:16.654Z,-1.03
2023-01-20T15:07:11.254Z,-1.04
2023-01-20T15:10:02.687Z,-1.06
2023-01-20T15:12:53.773Z,-1.09
2023-01-20T15:15:45.230Z,-1.09
2023-01-20T15:18:32.084Z,-1.13
2023-01-20T15:21:40.972Z,-1.19
2023-01-20T15:24:44.868Z,-1.18
2023-01-20T15:27:51.133Z,-1.20
2023-01-20T15:30:40.212Z,-1.22
2023-01-20T15:33:28.739Z,-1.24
2023-01-20T15:36:20.406Z,-1.31
2023-01-20T15:39:07.559Z,-1.34
2023-01-20T15:41:54.355Z,-1.28
2023-01-20T15:44:41.901Z,-1.30
2023-01-20T15:47:41.888Z,-1.32
2023-01-20T15:50:37.272Z,-1.36
2023-01-20T15:53:24.068Z,-1.35
2023-01-20T15:56:12.041Z,-1.37
2023-01-20T15:58:58.940Z,-1.39
2023-01-20T16:01:47.803Z,-1.40
2023-01-20T16:04:34.678Z,-1.51
2023-01-20T16:07:22.037Z,-1.93
2023-01-20T16:10:09.293Z,-1.45
2023-01-20T16:12:56.168Z,-1.50
2023-01-20T16:15:43.064Z,-1.48
2023-01-20T16:18:34.719Z,-1.50
2023-01-20T16:21:21.659Z,-1.54
2023-01-20T16:24:09.028Z,-1.55
2023-01-20T16:26:56.057Z,-1.57
2023-01-20T16:29:43.194Z,-1.58
2023-01-20T16:32:30.162Z,-1.64
2023-01-20T16:35:17.440Z,-1.62
2023-01-20T16:38:06.228Z,-1.64
2023-01-20T16:40:53.268Z,-1.65
2023-01-20T16:43:41.165Z,-1.68
2023-01-20T16:46:34.217Z,-1.92
2023-01-20T16:49:22.728Z,-1.73
2023-01-20T16:52:09.653Z,-1.73
2023-01-20T16:54:36.671Z,-1.74
2023-01-20T16:57:03.870Z,-1.73
2023-01-20T16:59:30.792Z,-1.74
2023-01-20T17:01:57.833Z,-1.75
2023-01-20T17:04:24.867Z,-1.73
2023-01-20T17:06:52.981Z,-1.78
2023-01-20T17:09:19.902Z,-1.78
2023-01-20T17:11:46.987Z,-2.22
2023-01-20T17:14:15.748Z,-1.73
2023-01-20T17:16:42.744Z,-1.73
2023-01-20T17:19:10.375Z,-1.73
2023-01-20T17:21:39.218Z,-1.73
2023-01-20T17:24:06.636Z,-1.73
2023-01-20T17:26:33.658Z,-1.72
2023-01-20T17:29:03.472Z,-1.72
2023-01-20T17:31:36.648Z,-1.72
2023-01-20T17:34:05.058Z,-1.71
2023-01-20T17:36:34.766Z,-2.03
2023-01-20T17:39:03.896Z,-1.71
2023-01-20T17:41:31.234Z,-1.74
2023-01-20T17:43:58.302Z,-1.73
2023-01-20T17:46:30.218Z,-1.90
2023-01-20T17:48:58.822Z,-1.68
2023-01-20T17:51:28.108Z,-1.69
2023-01-20T17:53:55.275Z,-1.67
2023-01-20T17:56:23.371Z,-1.66
2023-01-20T17:58:50.504Z,-1.66
2023-01-20T18:01:23.435Z,-1.67
2023-01-20T18:03:52.677Z,-1.68
2023-01-20T18:06:21.781Z,-1.69
2023-01-20T18:08:57.588Z,-1.69
2023-01-20T18:11:27.171Z,-1.71
2023-01-20T18:13:56.160Z,-1.67
2023-01-20T18:16:26.593Z,-1.77
2023-01-20T18:18:58.533Z,-1.69
2023-01-20T18:21:36.440Z,-1.67
2023-01-20T18:24:05.914Z,-1.65
2023-01-20T18:26:34.919Z,-1.64
2023-01-20T18:29:07.752Z,-1.65
2023-01-20T18:31:35.135Z,-1.67
2023-01-20T18:34:07.929Z,-1.90
2023-01-20T18:36:37.298Z,-2.01
2023-01-20T18:39:22.519Z,-1.71
2023-01-20T18:42:10.133Z,-1.92
2023-01-20T18:44:57.093Z,-1.73
2023-01-20T18:47:44.031Z,-1.74
2023-01-20T18:50:31.795Z,-1.77
2023-01-20T18:53:18.691Z,-1.77
2023-01-20T18:56:05.616Z,-1.79
2023-01-20T18:58:57.371Z,-1.80
2023-01-20T19:01:47.354Z,-1.81
2023-01-20T19:04:34.305Z,-1.83
2023-01-20T19:07:21.310Z,-1.87
2023-01-20T19:10:08.337Z,-1.89
2023-01-20T19:12:55.258Z,-1.87
2023-01-20T19:15:42.311Z,-1.90
2023-01-20T19:18:29.470Z,-1.89
2023-01-20T19:21:16.480Z,-1.92
2023-01-20T19:24:03.794Z,-1.92
2023-01-20T19:26:50.800Z,-1.95
2023-01-20T19:29:37.694Z,-2.35
2023-01-20T19:32:24.758Z,-1.98
2023-01-20T19:35:11.753Z,-1.99
2023-01-20T19:37:59.328Z,-2.00
2023-01-20T19:40:46.265Z,-2.20
2023-01-20T19:43:33.247Z,-2.06
2023-01-20T19:46:24.472Z,-2.08
2023-01-20T19:49:13.144Z,-2.11
2023-01-20T19:52:00.055Z,-2.13
2023-01-20T19:54:47.095Z,-2.17
2023-01-20T19:57:33.945Z,-2.20
2023-01-20T20:00:20.857Z,-2.23
2023-01-20T20:03:07.696Z,-2.50
2023-01-20T20:05:58.404Z,-2.33
2023-01-20T20:08:45.307Z,-2.35
2023-01-20T20:11:32.322Z,-2.88
2023-01-20T20:14:22.241Z,-2.60
2023-01-20T20:17:10.317Z,-2.41
2023-01-20T20:19:57.290Z,-2.44
2023-01-20T20:22:44.299Z,-2.47
2023-01-20T20:25:31.157Z,-2.61
2023-01-20T20:27:58.207Z,-2.61
2023-01-20T20:30:45.149Z,-2.57
2023-01-20T20:33:32.542Z,-2.63
2023-01-20T20:35:59.546Z,-2.66
2023-01-20T20:38:26.648Z,-2.68
2023-01-20T20:40:58.132Z,-2.72
2023-01-20T20:43:25.340Z,-2.74
2023-01-20T20:45:52.933Z,-2.85
2023-01-20T20:48:40.177Z,-3.12
2023-01-20T20:51:29.990Z,-2.85
2023-01-20T20:54:18.102Z,-2.89
2023-01-20T20:57:05.563Z,-2.94
2023-01-20T20:59:58.823Z,-3.06
2023-01-20T21:02:46.703Z,-3.02
2023-01-20T21:05:33.686Z,-3.06
2023-01-20T21:08:20.793Z,-3.10
2023-01-20T21:11:07.764Z,-3.17
2023-01-20T21:13:54.617Z,-3.22
2023-01-20T21:16:42.735Z,-3.21
2023-01-20T21:19:29.764Z,-3.51
2023-01-20T21:22:16.691Z,-3.29
2023-01-20T21:25:03.601Z,-3.37
2023-01-20T21:27:53.831Z,-3.57
2023-01-20T21:30:40.952Z,-3.39
2023-01-20T21:33:27.905Z,-3.41
2023-01-20T21:36:14.854Z,-3.44
2023-01-20T21:39:05.443Z,-3.47
2023-01-20T21:41:52.453Z,-3.65
2023-01-20T21:44:48.473Z,-3.53
2023-01-20T21:47:35.486Z,-3.61
2023-01-20T21:50:20.925Z,-3.67
2023-01-20T21:53:07.982Z,-3.63
2023-01-20T21:55:56.904Z,-3.66
2023-01-20T21:58:43.776Z,-3.68
2023-01-20T22:01:30.718Z,-3.88
2023-01-20T22:04:17.575Z,-3.82
2023-01-20T22:07:04.647Z,-3.78
2023-01-20T22:09:51.578Z,-3.78
2023-01-20T22:12:38.444Z,-3.83
2023-01-20T22:15:26.051Z,-3.85
2023-01-20T22:18:12.938Z,-3.99
2023-01-20T22:20:59.847Z,-3.92
2023-01-20T22:23:46.723Z,-4.20
2023-01-20T22:26:34.172Z,-3.99
2023-01-20T22:29:21.039Z,-4.02
2023-01-20T22:32:11.257Z,-4.09
2023-01-20T22:34:58.090Z,-4.09
2023-01-20T22:37:45.146Z,-4.44
2023-01-20T22:40:34.201Z,-4.13
2023-01-20T22:43:21.546Z,-4.23
2023-01-20T22:46:08.408Z,-4.19
2023-01-20T22:48:55.450Z,-4.54
2023-01-20T22:51:44.899Z,-4.48
2023-01-20T22:54:31.775Z,-4.28
2023-01-20T22:57:18.594Z,-4.46
2023-01-20T23:00:05.608Z,-4.67
2023-01-20T23:02:52.422Z,-4.41
2023-01-20T23:05:40.940Z,-4.39
2023-01-20T23:08:27.875Z,-4.42
2023-01-20T23:11:17.093Z,-4.45
2023-01-20T23:14:03.976Z,-4.47
2023-01-20T23:16:50.908Z,-4.51
2023-01-20T23:19:37.912Z,-4.54
2023-01-20T23:22:24.991Z,-4.56
2023-01-20T23:25:11.806Z,-4.60
2023-01-20T23:27:58.758Z,-4.63
2023-01-20T23:30:45.614Z,-4.65
2023-01-20T23:33:32.606Z,-4.68
2023-01-20T23:36:26.738Z,-4.77
2023-01-20T23:39:14.983Z,-5.01
2023-01-20T23:42:01.828Z,-4.74
2023-01-20T23:44:48.743Z,-4.77
2023-01-20T23:47:35.545Z,-4.79
2023-01-20T23:50:22.719Z,-4.84
2023-01-20T23:53:09.612Z,-4.82
2023-01-20T23:55:57.306Z,-4.92
2023-01-20T23:58:44.183Z,-4.86
